Time;durP1;ratioP1;P1;durP2;ratioP2;P2;SDS_P1;SDS_P2;PMS_P1;PMS_P2;Temp;Humidity;BMP_temperature;BMP_pressure;BME280_temperature;BME280_humidity;BME280_pressure;Samples;Min_cycle;Max_cycle;Signal;HPM_P1;HPM_P2
2024/02/02 00:00:57;;;;;;;8.73;2.80;;;17.20;54.40;;;;;;5011662;28;20470;-74
2024/02/02 00:03:25;;;;;;;5.60;2.57;;;17.10;54.50;;;;;;5008665;28;20471;-73
2024/02/02 00:05:53;;;;;;;7.73;2.50;;;17.10;54.40;;;;;;5010894;28;20463;-74
2024/02/02 00:08:21;;;;;;;5.43;2.57;;;17.20;54.60;;;;;;5009283;28;20448;-74
2024/02/02 00:10:50;;;;;;;6.50;2.50;;;17.10;54.60;;;;;;5011082;28;20444;-74
2024/02/02 00:13:19;;;;;;;4.97;2.43;;;17.10;54.50;;;;;;5010720;28;20452;-74
2024/02/02 00:15:47;;;;;;;7.27;2.93;;;17.10;54.40;;;;;;5010155;28;21049;-74
2024/02/02 00:18:16;;;;;;;8.53;3.03;;;17.10;54.60;;;;;;5010774;28;20436;-74
2024/02/02 00:20:44;;;;;;;6.80;2.30;;;17.10;54.50;;;;;;5012230;28;20448;-74
2024/02/02 00:23:11;;;;;;;7.20;2.60;;;17.20;54.50;;;;;;5011529;28;20480;-74
2024/02/02 00:25:39;;;;;;;8.03;3.20;;;17.10;54.60;;;;;;5010372;28;20492;-74
2024/02/02 00:28:07;;;;;;;5.17;2.57;;;17.10;54.50;;;;;;5011277;28;20449;-74
2024/02/02 00:30:37;;;;;;;7.67;2.90;;;17.10;54.50;;;;;;5011387;28;20939;-73
2024/02/02 00:33:06;;;;;;;5.83;2.63;;;17.10;54.50;;;;;;5014171;28;20433;-74
2024/02/02 00:35:34;;;;;;;9.27;2.67;;;17.10;54.50;;;;;;5012716;28;20967;-74
2024/02/02 00:38:02;;;;;;;6.93;2.57;;;17.10;54.60;;;;;;5009727;28;20460;-74
2024/02/02 00:40:30;;;;;;;11.80;3.37;;;17.10;54.50;;;;;;5013110;28;20515;-74
2024/02/02 00:42:58;;;;;;;7.30;2.70;;;17.10;54.60;;;;;;5008044;28;20512;-74
2024/02/02 00:45:26;;;;;;;7.00;2.30;;;17.10;54.50;;;;;;5010689;28;20463;-75
2024/02/02 00:47:55;;;;;;;9.13;2.40;;;17.10;54.70;;;;;;5012612;28;20455;-74
2024/02/02 00:50:23;;;;;;;6.90;2.53;;;17.10;54.70;;;;;;5010224;28;20483;-74
2024/02/02 00:52:51;;;;;;;7.10;2.87;;;17.10;54.40;;;;;;5011913;28;20445;-74
2024/02/02 00:55:19;;;;;;;7.10;2.90;;;17.00;54.60;;;;;;5010136;28;20474;-74
2024/02/02 00:57:48;;;;;;;4.60;2.40;;;17.10;54.70;;;;;;5011313;28;20552;-74
2024/02/02 01:00:16;;;;;;;10.03;3.07;;;17.00;54.70;;;;;;5011146;28;20487;-74
2024/02/02 01:02:44;;;;;;;7.77;3.00;;;17.00;54.60;;;;;;5010386;28;20480;-75
2024/02/02 01:05:14;;;;;;;4.97;2.50;;;17.00;54.80;;;;;;5012063;28;20897;-74
2024/02/02 01:07:42;;;;;;;8.50;2.70;;;17.10;54.60;;;;;;5013365;28;20522;-74
2024/02/02 01:10:16;;;;;;;6.13;2.80;;;17.00;54.70;;;;;;5010576;28;20468;-74
2024/02/02 01:12:44;;;;;;;6.90;2.47;;;17.00;54.70;;;;;;5010716;28;20436;-74
2024/02/02 01:15:11;;;;;;;4.70;2.47;;;17.00;54.60;;;;;;5010713;28;20463;-74
2024/02/02 01:17:38;;;;;;;7.77;2.80;;;17.00;54.60;;;;;;5010105;28;20943;-74
2024/02/02 01:20:07;;;;;;;8.37;3.30;;;17.00;54.70;;;;;;5010819;28;20441;-74
2024/02/02 01:22:36;;;;;;;7.97;2.83;;;17.00;54.70;;;;;;5009455;28;20472;-73
2024/02/02 01:25:05;;;;;;;5.53;2.57;;;17.00;54.70;;;;;;5009421;28;20466;-74
2024/02/02 01:27:33;;;;;;;7.53;2.67;;;17.00;54.50;;;;;;5010108;28;20448;-74
2024/02/02 01:30:02;;;;;;;4.27;2.73;;;17.00;54.80;;;;;;5010816;28;20452;-74
2024/02/02 01:32:30;;;;;;;4.70;2.73;;;17.00;54.90;;;;;;5013151;28;20965;-74
2024/02/02 01:34:58;;;;;;;8.07;2.70;;;17.00;54.70;;;;;;5009298;28;20472;-74
2024/02/02 01:37:26;;;;;;;7.63;2.67;;;17.00;54.50;;;;;;5077775;22;20473;-76
2024/02/02 01:39:55;;;;;;;7.43;3.00;;;17.00;54.70;;;;;;5045782;28;20451;-76
2024/02/02 01:42:24;;;;;;;5.13;2.60;;;17.00;54.70;;;;;;5055735;28;20522;-76
2024/02/02 01:44:52;;;;;;;11.00;3.43;;;17.00;54.70;;;;;;5051059;28;20447;-76
2024/02/02 01:47:20;;;;;;;7.20;3.13;;;17.00;54.70;;;;;;5050766;28;20470;-77
2024/02/02 01:49:48;;;;;;;7.17;2.70;;;17.00;54.80;;;;;;5041915;28;20469;-76
2024/02/02 01:52:16;;;;;;;8.10;3.03;;;17.00;54.70;;;;;;5041669;28;20533;-76
2024/02/02 01:54:44;;;;;;;10.13;3.03;;;16.90;54.80;;;;;;5034261;28;20543;-77
2024/02/02 01:57:14;;;;;;;7.77;2.93;;;17.00;54.80;;;;;;5036525;28;20550;-77
2024/02/02 01:59:42;;;;;;;5.83;2.70;;;16.90;54.50;;;;;;5030320;28;20447;-76
2024/02/02 02:02:12;;;;;;;5.60;2.57;;;16.90;54.80;;;;;;5037738;28;20542;-76
2024/02/02 02:04:40;;;;;;;5.27;3.10;;;16.90;54.90;;;;;;5029234;28;20486;-76
2024/02/02 02:07:08;;;;;;;6.80;2.73;;;16.90;54.80;;;;;;5034471;28;20552;-76
2024/02/02 02:09:36;;;;;;;6.37;2.77;;;16.90;54.60;;;;;;5031913;28;20458;-76
2024/02/02 02:12:04;;;;;;;6.33;2.90;;;16.90;54.70;;;;;;5045747;28;20521;-76
2024/02/02 02:14:33;;;;;;;7.23;3.13;;;16.90;54.60;;;;;;5029443;28;20456;-76
2024/02/02 02:17:01;;;;;;;5.90;3.00;;;16.90;54.80;;;;;;5035073;28;20565;-77
2024/02/02 02:19:29;;;;;;;5.43;2.87;;;16.90;54.90;;;;;;5031238;28;20431;-77
2024/02/02 02:21:58;;;;;;;8.03;2.83;;;16.90;54.90;;;;;;5049686;28;20472;-78
2024/02/02 02:24:26;;;;;;;6.47;2.90;;;16.90;54.80;;;;;;5039626;28;20476;-76
2024/02/02 02:26:54;;;;;;;5.17;2.70;;;16.90;54.90;;;;;;5036854;28;20550;-77
2024/02/02 02:29:22;;;;;;;8.60;3.00;;;16.90;54.80;;;;;;5031710;28;20455;-77
2024/02/02 02:31:54;;;;;;;6.77;2.83;;;16.90;54.70;;;;;;5036177;28;20450;-76
2024/02/02 02:34:26;;;;;;;7.80;2.97;;;16.90;54.80;;;;;;5032793;28;20428;-77
2024/02/02 02:36:54;;;;;;;11.20;3.07;;;16.90;54.70;;;;;;5026578;28;20580;-77
2024/02/02 02:39:23;;;;;;;10.63;3.10;;;16.90;54.90;;;;;;5038795;28;20438;-77
2024/02/02 02:41:51;;;;;;;5.77;2.60;;;16.90;54.80;;;;;;5022941;28;20436;-77
2024/02/02 02:44:19;;;;;;;6.67;2.50;;;16.90;55.00;;;;;;5029670;28;20559;-77
2024/02/02 02:46:48;;;;;;;8.60;3.50;;;16.90;54.90;;;;;;5032058;28;20510;-77
2024/02/02 02:49:15;;;;;;;6.80;3.10;;;16.90;54.80;;;;;;5032653;28;20446;-76
2024/02/02 02:51:44;;;;;;;7.63;2.77;;;16.90;54.80;;;;;;5032306;28;20456;-77
2024/02/02 02:54:12;;;;;;;4.90;2.73;;;16.90;54.80;;;;;;5032190;28;20471;-77
2024/02/02 02:56:42;;;;;;;8.63;2.70;;;16.90;54.90;;;;;;5032427;28;20550;-77
2024/02/02 02:59:10;;;;;;;7.23;2.40;;;16.80;54.80;;;;;;5032600;28;20526;-77
2024/02/02 03:01:38;;;;;;;8.70;3.00;;;16.80;54.80;;;;;;5032920;28;20451;-77
2024/02/02 03:04:06;;;;;;;9.27;3.17;;;16.90;55.00;;;;;;5031341;28;20467;-77
2024/02/02 03:06:34;;;;;;;9.03;3.20;;;16.80;54.80;;;;;;5031862;28;20470;-77
2024/02/02 03:09:04;;;;;;;6.23;2.80;;;16.90;55.00;;;;;;5031570;28;20482;-76
2024/02/02 03:11:32;;;;;;;8.13;2.90;;;16.90;54.80;;;;;;5031384;28;20427;-77
2024/02/02 03:14:02;;;;;;;11.10;3.10;;;16.80;54.90;;;;;;5031036;28;20439;-77
2024/02/02 03:16:30;;;;;;;7.57;3.00;;;16.80;54.60;;;;;;5035131;28;20642;-76
2024/02/02 03:18:58;;;;;;;6.50;2.47;;;16.80;54.80;;;;;;5036074;28;20443;-77
2024/02/02 03:21:26;;;;;;;7.73;3.03;;;16.90;54.90;;;;;;5035840;28;20478;-76
2024/02/02 03:23:54;;;;;;;6.33;2.60;;;16.80;54.60;;;;;;5035775;28;20467;-77
2024/02/02 03:26:22;;;;;;;4.47;2.67;;;16.80;54.80;;;;;;5035078;28;20988;-77
2024/02/02 03:28:50;;;;;;;5.97;2.77;;;16.80;54.80;;;;;;5035773;28;20519;-76
2024/02/02 03:31:20;;;;;;;6.77;2.90;;;16.80;54.80;;;;;;5035694;28;20962;-77
2024/02/02 03:33:47;;;;;;;8.57;3.00;;;16.80;54.70;;;;;;5035320;28;20459;-77
2024/02/02 03:36:16;;;;;;;5.40;3.00;;;16.80;54.80;;;;;;5035636;28;20470;-77
2024/02/02 03:38:43;;;;;;;7.80;3.03;;;16.80;54.80;;;;;;5035459;28;20868;-76
2024/02/02 03:41:12;;;;;;;4.87;2.33;;;16.80;54.80;;;;;;5035277;28;20851;-76
2024/02/02 03:43:40;;;;;;;4.50;2.60;;;16.80;54.80;;;;;;5034111;28;20481;-77
2024/02/02 03:46:08;;;;;;;7.00;3.03;;;16.80;54.80;;;;;;5035461;28;20460;-77
2024/02/02 03:48:37;;;;;;;6.63;2.97;;;16.80;54.70;;;;;;5035189;28;20439;-76
2024/02/02 03:51:06;;;;;;;8.70;3.27;;;16.80;54.60;;;;;;5035053;28;20427;-77
2024/02/02 03:53:34;;;;;;;9.93;3.10;;;16.80;54.90;;;;;;5035193;28;20443;-77
2024/02/02 03:56:02;;;;;;;6.80;3.00;;;16.80;54.80;;;;;;5036362;28;20486;-77
2024/02/02 03:58:29;;;;;;;6.97;2.90;;;16.80;54.70;;;;;;5034998;28;20424;-77
2024/02/02 04:00:58;;;;;;;8.53;2.63;;;16.80;54.90;;;;;;5035158;28;20475;-77
2024/02/02 04:03:26;;;;;;;5.93;2.60;;;16.80;54.60;;;;;;5034757;28;20451;-74
2024/02/02 04:05:55;;;;;;;7.27;2.60;;;16.80;54.90;;;;;;5034679;28;20493;-77
2024/02/02 04:08:23;;;;;;;6.37;2.80;;;16.70;55.30;;;;;;5034738;28;20542;-77
2024/02/02 04:10:51;;;;;;;11.77;3.27;;;16.70;54.70;;;;;;5034742;28;20512;-76
2024/02/02 04:13:19;;;;;;;9.87;3.03;;;16.70;54.60;;;;;;5035501;28;20463;-77
2024/02/02 04:15:47;;;;;;;8.27;3.20;;;16.70;54.50;;;;;;5034452;28;20482;-77
2024/02/02 04:18:15;;;;;;;6.20;2.90;;;16.70;55.30;;;;;;5035025;28;20463;-77
2024/02/02 04:20:44;;;;;;;6.63;3.03;;;16.70;54.80;;;;;;5037332;28;20454;-77
2024/02/02 04:23:15;;;;;;;8.67;3.00;;;16.70;54.50;;;;;;5046589;28;20489;-76
2024/02/02 04:25:43;;;;;;;4.23;2.90;;;16.70;54.70;;;;;;5037365;28;20517;-77
2024/02/02 04:28:11;;;;;;;7.27;3.00;;;16.70;54.70;;;;;;5037551;28;20447;-76
2024/02/02 04:30:40;;;;;;;5.23;3.10;;;16.70;54.90;;;;;;5036591;28;20543;-76
2024/02/02 04:33:08;;;;;;;8.37;3.33;;;16.70;54.70;;;;;;5038435;28;20457;-77
2024/02/02 04:35:36;;;;;;;6.20;2.63;;;16.70;54.50;;;;;;5036555;28;20931;-77
2024/02/02 04:38:05;;;;;;;10.00;3.40;;;16.70;54.70;;;;;;5041996;28;20451;-77
2024/02/02 04:40:34;;;;;;;7.40;3.13;;;16.70;54.60;;;;;;5033735;28;20439;-77
2024/02/02 04:43:02;;;;;;;7.43;2.90;;;16.70;54.80;;;;;;5026095;28;20481;-77
2024/02/02 04:45:31;;;;;;;5.53;2.90;;;16.70;54.70;;;;;;5039997;28;20474;-77
2024/02/02 04:47:59;;;;;;;7.67;3.10;;;16.60;54.70;;;;;;5033960;28;20443;-77
2024/02/02 04:50:28;;;;;;;8.53;3.20;;;16.70;54.80;;;;;;5035193;28;20481;-76
2024/02/02 04:52:56;;;;;;;7.20;3.10;;;16.70;54.90;;;;;;5034019;28;20454;-77
2024/02/02 04:55:24;;;;;;;8.03;2.97;;;16.70;54.80;;;;;;5035866;28;20471;-77
2024/02/02 04:57:53;;;;;;;6.77;2.87;;;16.70;54.80;;;;;;5035348;28;20530;-77
2024/02/02 05:00:21;;;;;;;9.57;3.50;;;16.60;54.70;;;;;;5040096;28;20478;-76
2024/02/02 05:02:50;;;;;;;9.60;3.20;;;16.60;54.70;;;;;;5034976;28;20540;-77
2024/02/02 05:05:18;;;;;;;5.83;2.80;;;16.60;54.90;;;;;;5033176;28;20472;-77
2024/02/02 05:07:46;;;;;;;9.53;3.40;;;16.60;54.80;;;;;;5033280;28;20493;-77
2024/02/02 05:10:14;;;;;;;5.57;2.93;;;16.60;54.50;;;;;;5033338;28;20442;-77
2024/02/02 05:12:42;;;;;;;7.07;2.93;;;16.60;54.80;;;;;;5039509;28;20890;-77
2024/02/02 05:15:12;;;;;;;6.30;3.20;;;16.60;54.50;;;;;;5032698;28;20435;-77
2024/02/02 05:17:39;;;;;;;4.97;2.80;;;16.60;54.80;;;;;;5040920;28;20470;-77
2024/02/02 05:20:08;;;;;;;5.87;2.97;;;16.60;54.50;;;;;;5053497;28;20451;-77
2024/02/02 05:22:36;;;;;;;7.03;3.20;;;16.60;54.90;;;;;;5053240;28;20542;-77
2024/02/02 05:25:04;;;;;;;9.03;2.97;;;16.60;54.90;;;;;;5036360;28;21009;-77
2024/02/02 05:27:33;;;;;;;6.33;3.37;;;16.60;54.80;;;;;;5038343;28;20471;-78
2024/02/02 05:30:01;;;;;;;11.57;3.33;;;16.60;54.60;;;;;;5036631;28;20543;-77
2024/02/02 05:32:30;;;;;;;5.10;3.00;;;16.60;54.70;;;;;;5039313;28;20447;-77
2024/02/02 05:34:58;;;;;;;8.27;3.20;;;16.60;54.60;;;;;;5032540;28;20440;-77
2024/02/02 05:37:27;;;;;;;6.17;3.10;;;16.60;54.70;;;;;;5032193;28;20476;-77
2024/02/02 05:39:55;;;;;;;7.80;3.40;;;16.60;54.60;;;;;;5036622;28;20443;-78
2024/02/02 05:42:23;;;;;;;8.60;3.33;;;16.60;54.70;;;;;;5018744;28;20504;-77
2024/02/02 05:44:52;;;;;;;9.93;3.50;;;16.60;54.70;;;;;;5030772;28;20478;-78
2024/02/02 05:47:20;;;;;;;9.97;3.00;;;16.60;55.40;;;;;;5035429;28;20514;-78
2024/02/02 05:49:49;;;;;;;6.30;2.77;;;16.60;54.60;;;;;;5033789;28;20461;-76
2024/02/02 05:52:17;;;;;;;5.83;3.10;;;16.60;54.70;;;;;;5039023;28;20505;-77
2024/02/02 05:54:45;;;;;;;8.93;3.20;;;16.60;54.70;;;;;;5032828;28;20451;-77
2024/02/02 05:57:13;;;;;;;8.40;3.23;;;16.60;54.50;;;;;;5050252;28;20569;-77
2024/02/02 05:59:41;;;;;;;7.87;3.33;;;16.60;54.40;;;;;;5052700;28;20446;-77
2024/02/02 06:02:08;;;;;;;9.17;3.30;;;16.60;54.80;;;;;;5052519;28;20442;-77
2024/02/02 06:04:36;;;;;;;5.40;3.00;;;16.50;54.60;;;;;;5039932;28;20475;-77
2024/02/02 06:07:06;;;;;;;10.10;3.20;;;16.50;54.70;;;;;;5049757;28;20452;-77
2024/02/02 06:09:34;;;;;;;5.50;3.13;;;16.60;54.50;;;;;;5032204;28;20522;-77
2024/02/02 06:12:02;;;;;;;8.70;3.30;;;16.60;54.60;;;;;;5038787;28;20449;-77
2024/02/02 06:14:30;;;;;;;8.00;3.07;;;16.60;54.70;;;;;;5036560;28;20526;-76
2024/02/02 06:16:58;;;;;;;8.23;3.40;;;16.60;54.60;;;;;;5033721;28;20538;-77
2024/02/02 06:19:26;;;;;;;11.10;3.47;;;16.60;54.40;;;;;;5040207;28;20530;-77
2024/02/02 06:21:54;;;;;;;11.23;3.20;;;16.60;54.50;;;;;;5033261;28;20529;-77
2024/02/02 06:24:24;;;;;;;6.90;3.00;;;16.60;54.40;;;;;;5051428;28;20443;-77
2024/02/02 06:26:53;;;;;;;11.67;3.60;;;16.50;54.60;;;;;;5034418;28;20483;-77
2024/02/02 06:29:21;;;;;;;6.03;3.23;;;16.50;54.50;;;;;;5034582;28;20456;-77
2024/02/02 06:31:49;;;;;;;7.63;3.67;;;16.50;54.50;;;;;;5032834;28;20534;-76
2024/02/02 06:34:17;;;;;;;7.13;3.87;;;16.60;54.60;;;;;;5032607;28;20435;-77
2024/02/02 06:36:44;;;;;;;6.20;3.63;;;16.50;54.50;;;;;;5052400;28;20478;-75
2024/02/02 06:39:13;;;;;;;9.70;3.90;;;16.50;54.40;;;;;;5052087;28;20454;-77
2024/02/02 06:41:42;;;;;;;8.40;3.37;;;16.50;54.50;;;;;;5036562;28;20467;-77
2024/02/02 06:44:10;;;;;;;7.40;3.40;;;16.50;54.40;;;;;;5032997;28;20452;-77
2024/02/02 06:46:38;;;;;;;8.83;3.30;;;16.50;54.10;;;;;;5031523;28;20503;-77
2024/02/02 06:49:06;;;;;;;10.00;3.80;;;16.50;54.50;;;;;;5038807;28;20898;-77
2024/02/02 06:51:34;;;;;;;9.90;3.57;;;16.50;54.60;;;;;;5044518;28;20446;-77
2024/02/02 06:54:02;;;;;;;12.80;4.00;;;16.50;54.40;;;;;;5049231;28;20442;-77
2024/02/02 06:56:31;;;;;;;12.20;3.90;;;16.50;54.40;;;;;;5042430;28;20550;-77
2024/02/02 06:59:00;;;;;;;10.27;4.00;;;16.50;54.40;;;;;;5051978;28;20461;-77
2024/02/02 07:01:29;;;;;;;9.30;3.90;;;16.50;54.30;;;;;;5044058;28;20502;-77
2024/02/02 07:03:57;;;;;;;12.20;3.90;;;16.50;54.50;;;;;;5047256;28;20534;-77
2024/02/02 07:06:25;;;;;;;10.57;3.30;;;16.50;54.30;;;;;;5044604;28;20475;-77
2024/02/02 07:09:00;;;;;;;5.63;3.33;;;16.50;54.30;;;;;;5033251;28;20516;-77
2024/02/02 07:11:56;;;;;;;11.83;4.00;;;16.60;54.40;;;;;;5037571;28;20446;-77
2024/02/02 07:14:47;;;;;;;5.53;3.47;;;16.60;54.30;;;;;;5017607;28;20451;-77
2024/02/02 07:17:23;;;;;;;11.33;4.10;;;16.60;54.40;;;;;;5024229;28;20506;-77
2024/02/02 07:19:51;;;;;;;12.10;3.57;;;16.60;54.20;;;;;;5036273;28;20447;-77
2024/02/02 07:22:33;;;;;;;8.93;4.07;;;16.60;54.20;;;;;;5022118;28;20443;-77
2024/02/02 07:25:02;;;;;;;10.40;4.00;;;16.60;54.30;;;;;;5029661;28;20466;-77
2024/02/02 07:27:50;;;;;;;8.00;4.00;;;16.60;54.30;;;;;;5029241;28;21014;-77
2024/02/02 07:30:47;;;;;;;12.27;4.43;;;16.60;54.20;;;;;;5029649;28;20447;-76
2024/02/02 07:33:21;;;;;;;5.77;3.30;;;16.50;54.20;;;;;;5027987;28;20448;-76
2024/02/02 07:35:49;;;;;;;6.50;3.50;;;16.50;54.20;;;;;;5058447;22;20476;-78
2024/02/02 07:38:36;;;;;;;7.40;3.70;;;16.60;54.20;;;;;;5068721;28;20456;-77
2024/02/02 07:41:05;;;;;;;11.17;3.90;;;16.60;54.10;;;;;;5069292;28;20453;-76
2024/02/02 07:43:33;;;;;;;10.33;4.27;;;16.60;54.20;;;;;;5069244;28;20452;-76
2024/02/02 07:46:03;;;;;;;7.63;3.23;;;16.60;54.20;;;;;;5068882;28;20562;-76
2024/02/02 07:48:39;;;;;;;9.50;3.70;;;16.60;54.30;;;;;;5069591;28;20450;-76
2024/02/02 07:51:08;;;;;;;7.30;3.30;;;16.60;54.20;;;;;;5069406;28;20456;-76
2024/02/02 07:53:36;;;;;;;8.33;4.03;;;16.60;54.10;;;;;;5068883;28;20466;-76
2024/02/02 07:56:05;;;;;;;12.57;4.27;;;16.60;54.10;;;;;;5062234;28;20450;-75
2024/02/02 07:58:33;;;;;;;8.07;4.07;;;16.60;54.10;;;;;;5069059;28;20461;-76
2024/02/02 08:01:01;;;;;;;12.77;3.90;;;16.60;54.20;;;;;;5069808;28;20456;-77
2024/02/02 08:03:30;;;;;;;12.30;3.60;;;16.60;54.00;;;;;;5072080;28;20483;-76
2024/02/02 08:05:59;;;;;;;11.90;4.07;;;16.60;53.90;;;;;;5072378;28;20516;-77
2024/02/02 08:08:27;;;;;;;5.57;3.50;;;16.70;54.20;;;;;;5072541;28;20449;-76
2024/02/02 08:10:55;;;;;;;13.90;4.37;;;16.70;54.00;;;;;;5072518;28;20505;-77
2024/02/02 08:13:23;;;;;;;11.00;4.27;;;16.70;54.00;;;;;;5072359;28;20461;-76
2024/02/02 08:15:51;;;;;;;8.23;3.47;;;16.70;54.00;;;;;;5072365;28;20531;-76
2024/02/02 08:18:19;;;;;;;8.30;3.60;;;16.70;54.00;;;;;;5069028;28;20545;-77
2024/02/02 08:20:48;;;;;;;5.87;3.10;;;16.70;53.80;;;;;;5069464;28;20457;-77
2024/02/02 08:23:16;;;;;;;7.63;3.53;;;16.70;53.90;;;;;;5069613;28;20469;-76
2024/02/02 08:25:44;;;;;;;8.70;3.60;;;16.70;53.90;;;;;;5062525;28;20531;-76
2024/02/02 08:28:13;;;;;;;8.20;3.70;;;16.70;53.90;;;;;;5069893;28;20556;-77
2024/02/02 08:30:41;;;;;;;17.23;3.87;;;16.70;54.00;;;;;;5065361;28;20447;-76
2024/02/02 08:33:09;;;;;;;13.90;4.80;;;16.70;53.70;;;;;;5070056;28;20450;-76
2024/02/02 08:35:37;;;;;;;5.07;2.97;;;16.70;53.80;;;;;;5071335;28;20425;-76
2024/02/02 08:38:08;;;;;;;7.87;3.70;;;16.70;53.90;;;;;;5070990;28;20544;-77
2024/02/02 08:40:39;;;;;;;11.53;4.20;;;16.70;53.90;;;;;;5060700;28;20447;-76
2024/02/02 08:43:10;;;;;;;8.53;3.20;;;16.80;53.70;;;;;;5061839;28;20466;-76
2024/02/02 08:46:09;;;;;;;10.30;4.20;;;16.70;53.80;;;;;;5068676;28;20984;-77
2024/02/02 08:48:38;;;;;;;14.67;3.70;;;16.80;54.00;;;;;;5067394;28;20469;-77
2024/02/02 08:51:29;;;;;;;7.50;3.80;;;16.70;53.70;;;;;;5068251;28;20443;-78
2024/02/02 08:54:06;;;;;;;7.90;3.70;;;16.80;53.80;;;;;;5065655;28;20445;-76
2024/02/02 08:56:34;;;;;;;10.93;3.33;;;16.80;53.70;;;;;;5061559;28;20458;-77
2024/02/02 08:59:03;;;;;;;9.23;3.70;;;16.80;53.90;;;;;;5073953;28;20468;-77
2024/02/02 09:01:37;;;;;;;9.37;3.97;;;16.80;53.70;;;;;;5061066;28;20534;-77
2024/02/02 09:04:06;;;;;;;8.70;3.60;;;16.80;53.70;;;;;;5053277;28;20506;-77
2024/02/02 09:06:41;;;;;;;6.50;3.80;;;16.80;53.80;;;;;;5053844;28;20459;-77
2024/02/02 09:09:12;;;;;;;10.80;4.13;;;16.80;53.80;;;;;;5066412;28;20445;-77
2024/02/02 09:11:40;;;;;;;7.73;3.70;;;16.80;53.40;;;;;;5070392;28;20446;-77
2024/02/02 09:14:10;;;;;;;9.30;3.90;;;16.80;53.70;;;;;;5062714;28;20513;-76
2024/02/02 09:16:49;;;;;;;8.87;3.73;;;16.80;53.70;;;;;;5068214;28;20536;-76
2024/02/02 09:19:21;;;;;;;10.33;3.50;;;16.80;53.60;;;;;;5063592;28;20449;-76
2024/02/02 09:21:49;;;;;;;8.80;3.70;;;16.80;53.60;;;;;;5066720;28;20457;-75
2024/02/02 09:24:26;;;;;;;9.20;3.73;;;16.80;53.60;;;;;;5067766;28;20464;-76
2024/02/02 09:26:54;;;;;;;7.17;3.70;;;16.80;53.70;;;;;;5064354;28;20473;-75
2024/02/02 09:29:22;;;;;;;8.33;3.40;;;16.80;53.60;;;;;;5062602;28;20450;-76
2024/02/02 09:31:50;;;;;;;9.80;3.73;;;16.80;53.60;;;;;;5061341;28;20443;-74
2024/02/02 09:34:24;;;;;;;9.03;3.80;;;16.90;53.60;;;;;;5070606;28;20545;-74
2024/02/02 09:36:53;;;;;;;9.33;3.73;;;16.90;53.60;;;;;;5071870;28;20485;-74
2024/02/02 09:39:58;;;;;;;14.10;4.23;;;16.90;53.60;;;;;;5063386;28;20450;-74
2024/02/02 09:42:40;;;;;;;5.47;2.87;;;16.90;53.60;;;;;;5068185;28;20426;-75
2024/02/02 09:45:11;;;;;;;12.53;3.73;;;16.90;53.40;;;;;;5067662;28;20441;-72
2024/02/02 09:47:50;;;;;;;11.20;3.80;;;16.90;53.50;;;;;;5063136;28;20484;-73
2024/02/02 09:50:25;;;;;;;10.00;3.57;;;17.00;53.40;;;;;;5056143;28;20452;-73
2024/02/02 09:53:23;;;;;;;9.07;3.03;;;16.90;53.60;;;;;;5060286;28;20438;-74
2024/02/02 09:55:57;;;;;;;9.87;3.80;;;16.90;53.40;;;;;;5031065;28;20477;-74
2024/02/02 09:58:28;;;;;;;10.37;3.40;;;16.90;53.90;;;;;;5070539;28;20433;-74
2024/02/02 10:01:00;;;;;;;13.80;4.00;;;16.90;53.30;;;;;;5071664;28;20450;-78
2024/02/02 10:03:35;;;;;;;8.63;3.80;;;17.00;53.30;;;;;;5060596;28;20470;-76
2024/02/02 10:06:09;;;;;;;11.23;4.20;;;17.00;53.20;;;;;;5070452;28;20540;-76
2024/02/02 10:08:55;;;;;;;11.70;3.80;;;17.00;53.30;;;;;;5061330;28;20552;-77
2024/02/02 10:11:38;;;;;;;10.83;4.30;;;17.00;53.10;;;;;;5065634;28;20449;-77
2024/02/02 10:14:18;;;;;;;11.53;4.10;;;17.00;53.20;;;;;;5063026;28;20540;-77
2024/02/02 10:16:50;;;;;;;8.57;3.60;;;17.00;53.30;;;;;;5067443;28;20458;-77
2024/02/02 10:19:47;;;;;;;13.87;4.40;;;17.00;53.20;;;;;;5069044;28;20452;-77
2024/02/02 10:22:26;;;;;;;12.07;3.43;;;17.00;53.30;;;;;;5068380;28;20433;-76
2024/02/02 10:25:08;;;;;;;11.80;3.77;;;17.00;53.20;;;;;;5069035;28;20426;-76
2024/02/02 10:27:49;;;;;;;6.70;3.40;;;17.00;53.20;;;;;;5070857;28;20630;-78
2024/02/02 10:30:32;;;;;;;8.80;3.60;;;17.00;53.10;;;;;;5070856;28;20505;-78
2024/02/02 10:33:09;;;;;;;10.50;4.30;;;17.10;53.20;;;;;;5062086;28;20427;-77
2024/02/02 10:35:41;;;;;;;11.00;3.70;;;17.10;53.20;;;;;;5062776;28;20433;-76
2024/02/02 10:38:18;;;;;;;6.10;3.47;;;17.10;53.30;;;;;;5071624;28;20510;-76
2024/02/02 10:40:50;;;;;;;6.83;3.20;;;17.10;53.40;;;;;;5065190;28;20533;-78
2024/02/02 10:43:29;;;;;;;9.30;3.70;;;17.10;53.40;;;;;;5068465;28;20422;-77
2024/02/02 10:46:06;;;;;;;8.33;3.33;;;17.10;53.30;;;;;;5071570;28;20490;-78
2024/02/02 10:48:46;;;;;;;8.13;3.70;;;17.10;53.40;;;;;;5070440;28;20500;-77
2024/02/02 10:51:18;;;;;;;9.50;3.40;;;17.10;53.20;;;;;;5056219;28;20480;-76
2024/02/02 10:53:53;;;;;;;15.10;3.90;;;17.10;53.30;;;;;;5067484;28;20510;-76
2024/02/02 10:56:34;;;;;;;10.33;4.07;;;17.10;53.40;;;;;;5069911;28;20450;-77
2024/02/02 10:59:09;;;;;;;9.80;3.90;;;17.10;53.30;;;;;;5071052;28;20471;-76
2024/02/02 11:01:42;;;;;;;7.40;3.40;;;17.10;53.30;;;;;;5072877;28;20465;-76
2024/02/02 11:04:15;;;;;;;11.67;3.70;;;17.20;53.40;;;;;;5070653;28;20512;-75
2024/02/02 11:06:45;;;;;;;9.67;3.40;;;17.20;53.50;;;;;;5062499;28;20528;-74
2024/02/02 11:09:18;;;;;;;13.20;3.90;;;17.10;53.20;;;;;;5071880;28;20469;-74
2024/02/02 11:11:48;;;;;;;14.70;3.50;;;17.10;53.40;;;;;;5064700;28;20428;-77
2024/02/02 11:14:21;;;;;;;9.80;3.80;;;17.10;53.50;;;;;;5069448;28;20540;-75
2024/02/02 11:16:58;;;;;;;10.60;3.97;;;17.20;53.50;;;;;;5069577;28;20457;-77
2024/02/02 11:19:37;;;;;;;14.60;3.40;;;17.20;53.60;;;;;;5069389;28;20426;-74
2024/02/02 11:22:23;;;;;;;8.23;3.27;;;17.20;53.60;;;;;;5059459;28;20441;-75
2024/02/02 11:24:58;;;;;;;5.60;2.70;;;17.20;53.60;;;;;;5068984;28;20430;-74
2024/02/02 11:27:28;;;;;;;8.77;4.00;;;17.20;53.60;;;;;;5062926;28;20481;-74
2024/02/02 11:30:02;;;;;;;14.27;3.83;;;17.20;53.40;;;;;;5069890;28;20574;-75
2024/02/02 11:32:57;;;;;;;5.50;3.03;;;17.20;53.60;;;;;;5067442;28;20440;-74
2024/02/02 11:35:29;;;;;;;10.00;3.40;;;17.30;53.60;;;;;;5063976;28;20454;-74
2024/02/02 11:38:01;;;;;;;9.40;3.50;;;17.30;53.70;;;;;;5073467;28;20523;-74
2024/02/02 11:40:29;;;;;;;5.83;3.47;;;17.30;53.60;;;;;;5073322;28;20998;-75
2024/02/02 11:42:58;;;;;;;7.27;3.33;;;17.30;53.70;;;;;;5068338;28;20449;-74
2024/02/02 11:45:29;;;;;;;11.10;3.63;;;17.30;53.60;;;;;;5069247;28;20502;-73
2024/02/02 11:48:02;;;;;;;8.80;3.90;;;17.30;53.60;;;;;;5071007;28;20462;-75
2024/02/02 11:50:31;;;;;;;10.47;3.60;;;17.40;53.60;;;;;;5066478;28;20438;-75
2024/02/02 11:53:03;;;;;;;9.30;3.00;;;17.40;53.60;;;;;;5065530;28;20529;-73
2024/02/02 11:55:34;;;;;;;10.70;3.77;;;17.40;53.60;;;;;;5071285;28;20505;-74
2024/02/02 11:58:03;;;;;;;11.40;3.60;;;17.40;53.60;;;;;;5073479;28;20557;-76
2024/02/02 12:00:40;;;;;;;7.40;3.13;;;17.40;53.60;;;;;;5073492;28;20438;-76
2024/02/02 12:03:18;;;;;;;9.13;3.30;;;17.40;53.80;;;;;;5074113;28;20441;-78
2024/02/02 12:05:50;;;;;;;8.37;3.10;;;17.40;53.60;;;;;;5074038;28;20444;-75
2024/02/02 12:08:22;;;;;;;7.40;3.23;;;17.50;53.70;;;;;;5073210;28;20497;-75
2024/02/02 12:10:50;;;;;;;11.47;3.47;;;17.50;53.60;;;;;;5063147;28;20469;-75
2024/02/02 12:13:21;;;;;;;8.80;3.30;;;17.50;53.60;;;;;;5074614;28;20433;-75
2024/02/02 12:15:52;;;;;;;11.10;3.40;;;17.60;53.50;;;;;;5073725;28;20426;-75
2024/02/02 12:18:20;;;;;;;6.33;2.87;;;17.50;53.40;;;;;;5073465;28;20430;-76
2024/02/02 12:20:49;;;;;;;8.57;3.40;;;17.60;53.60;;;;;;5064877;28;20435;-75
2024/02/02 12:23:17;;;;;;;3.73;2.50;;;17.60;53.40;;;;;;5073344;28;20437;-76
2024/02/02 12:25:45;;;;;;;8.97;3.47;;;17.60;53.50;;;;;;5072715;28;20470;-75
2024/02/02 12:28:13;;;;;;;11.50;3.60;;;17.60;53.50;;;;;;5074020;28;20416;-75
2024/02/02 12:30:41;;;;;;;9.00;3.03;;;17.60;53.50;;;;;;5071053;28;20472;-76
2024/02/02 12:33:10;;;;;;;9.50;3.60;;;17.60;53.30;;;;;;5072515;28;20874;-74
2024/02/02 12:35:42;;;;;;;7.37;3.10;;;17.60;53.60;;;;;;5055512;28;20448;-74
2024/02/02 12:38:20;;;;;;;10.70;4.03;;;17.60;53.60;;;;;;5073901;28;20442;-76
2024/02/02 12:40:49;;;;;;;7.30;3.60;;;17.60;53.70;;;;;;5071536;28;20570;-76
2024/02/02 12:43:23;;;;;;;7.80;3.40;;;17.60;53.80;;;;;;5073518;28;20449;-74
2024/02/02 12:45:51;;;;;;;10.53;4.10;;;17.60;53.60;;;;;;5068251;28;20476;-74
2024/02/02 12:48:21;;;;;;;7.03;3.37;;;17.60;53.70;;;;;;5073141;28;20533;-75
2024/02/02 12:50:50;;;;;;;8.60;3.70;;;17.60;53.70;;;;;;5057549;28;20449;-75
2024/02/02 12:53:19;;;;;;;9.23;3.93;;;17.60;53.80;;;;;;5072434;28;20462;-75
2024/02/02 12:55:48;;;;;;;9.83;3.47;;;17.60;53.70;;;;;;5066729;28;20442;-76
2024/02/02 12:58:17;;;;;;;8.60;3.43;;;17.60;53.70;;;;;;5073047;28;20438;-75
2024/02/02 13:00:45;;;;;;;9.23;3.63;;;17.60;53.70;;;;;;5069090;28;20442;-75
2024/02/02 13:03:13;;;;;;;10.07;3.70;;;17.60;53.90;;;;;;5068390;28;20442;-75